sensor_id;sensor_type;location;lat;lon;timestamp;P1;durP1;ratioP1;P2;durP2;ratioP2
21558;SDS011;10940;48.890;8.240;2024-01-15T00:01:14;13.93;;;8.17;;
21558;SDS011;10940;48.890;8.240;2024-01-15T00:03:39;7.83;;;7.03;;
21558;SDS011;10940;48.890;8.240;2024-01-15T00:06:05;7.77;;;6.47;;
21558;SDS011;10940;48.890;8.240;2024-01-15T00:08:31;8.33;;;7.40;;
21558;SDS011;10940;48.890;8.240;2024-01-15T00:10:56;23.37;;;6.83;;
21558;SDS011;10940;48.890;8.240;2024-01-15T00:13:22;7.53;;;6.43;;
21558;SDS011;10940;48.890;8.240;2024-01-15T00:15:47;7.67;;;6.97;;
21558;SDS011;10940;48.890;8.240;2024-01-15T00:18:13;6.13;;;5.63;;
21558;SDS011;10940;48.890;8.240;2024-01-15T00:20:38;7.07;;;6.27;;
21558;SDS011;10940;48.890;8.240;2024-01-15T00:23:04;16.40;;;6.23;;
21558;SDS011;10940;48.890;8.240;2024-01-15T00:25:29;7.17;;;5.83;;
21558;SDS011;10940;48.890;8.240;2024-01-15T00:27:55;8.90;;;5.30;;
21558;SDS011;10940;48.890;8.240;2024-01-15T00:30:21;6.50;;;5.97;;
21558;SDS011;10940;48.890;8.240;2024-01-15T00:32:46;8.80;;;7.03;;
21558;SDS011;10940;48.890;8.240;2024-01-15T00:35:12;8.70;;;7.63;;
21558;SDS011;10940;48.890;8.240;2024-01-15T00:37:37;8.87;;;7.80;;
21558;SDS011;10940;48.890;8.240;2024-01-15T00:40:03;7.60;;;6.80;;
21558;SDS011;10940;48.890;8.240;2024-01-15T00:42:30;7.70;;;6.93;;
21558;SDS011;10940;48.890;8.240;2024-01-15T00:44:55;11.00;;;7.80;;
21558;SDS011;10940;48.890;8.240;2024-01-15T00:47:21;7.77;;;6.87;;
21558;SDS011;10940;48.890;8.240;2024-01-15T00:49:47;10.50;;;7.67;;
21558;SDS011;10940;48.890;8.240;2024-01-15T00:52:12;8.03;;;7.20;;
21558;SDS011;10940;48.890;8.240;2024-01-15T00:54:38;9.17;;;7.00;;
21558;SDS011;10940;48.890;8.240;2024-01-15T00:57:05;10.27;;;8.93;;
21558;SDS011;10940;48.890;8.240;2024-01-15T00:59:30;8.40;;;6.80;;
21558;SDS011;10940;48.890;8.240;2024-01-15T01:01:56;9.73;;;7.77;;
21558;SDS011;10940;48.890;8.240;2024-01-15T01:04:21;15.07;;;7.30;;
21558;SDS011;10940;48.890;8.240;2024-01-15T01:06:47;8.93;;;7.90;;
21558;SDS011;10940;48.890;8.240;2024-01-15T01:09:13;10.38;;;7.80;;
21558;SDS011;10940;48.890;8.240;2024-01-15T01:11:38;16.40;;;9.30;;
21558;SDS011;10940;48.890;8.240;2024-01-15T01:14:04;8.03;;;7.23;;
21558;SDS011;10940;48.890;8.240;2024-01-15T01:16:30;10.18;;;7.15;;
21558;SDS011;10940;48.890;8.240;2024-01-15T01:18:56;10.17;;;7.17;;
21558;SDS011;10940;48.890;8.240;2024-01-15T01:21:22;7.20;;;6.10;;
21558;SDS011;10940;48.890;8.240;2024-01-15T01:23:47;9.80;;;6.50;;
21558;SDS011;10940;48.890;8.240;2024-01-15T01:26:16;6.27;;;5.67;;
21558;SDS011;10940;48.890;8.240;2024-01-15T01:28:43;11.07;;;7.88;;
21558;SDS011;10940;48.890;8.240;2024-01-15T01:31:09;5.73;;;5.20;;
21558;SDS011;10940;48.890;8.240;2024-01-15T01:33:34;10.33;;;7.03;;
21558;SDS011;10940;48.890;8.240;2024-01-15T01:36:00;15.67;;;8.63;;
21558;SDS011;10940;48.890;8.240;2024-01-15T01:38:26;6.97;;;5.77;;
21558;SDS011;10940;48.890;8.240;2024-01-15T01:40:51;9.53;;;7.20;;
21558;SDS011;10940;48.890;8.240;2024-01-15T01:43:17;11.70;;;9.07;;
21558;SDS011;10940;48.890;8.240;2024-01-15T01:45:42;5.93;;;5.07;;
21558;SDS011;10940;48.890;8.240;2024-01-15T01:48:08;6.83;;;5.90;;
21558;SDS011;10940;48.890;8.240;2024-01-15T01:50:34;11.40;;;7.33;;
21558;SDS011;10940;48.890;8.240;2024-01-15T01:53:00;6.20;;;5.70;;
21558;SDS011;10940;48.890;8.240;2024-01-15T01:55:27;8.60;;;6.97;;
21558;SDS011;10940;48.890;8.240;2024-01-15T01:57:54;8.35;;;6.78;;
21558;SDS011;10940;48.890;8.240;2024-01-15T02:00:20;17.45;;;9.10;;
21558;SDS011;10940;48.890;8.240;2024-01-15T02:02:46;14.80;;;7.10;;
21558;SDS011;10940;48.890;8.240;2024-01-15T02:05:12;10.87;;;8.17;;
21558;SDS011;10940;48.890;8.240;2024-01-15T02:07:39;12.20;;;8.13;;
21558;SDS011;10940;48.890;8.240;2024-01-15T02:10:06;10.18;;;7.30;;
21558;SDS011;10940;48.890;8.240;2024-01-15T02:12:31;7.57;;;6.53;;
21558;SDS011;10940;48.890;8.240;2024-01-15T02:14:57;6.93;;;6.30;;
21558;SDS011;10940;48.890;8.240;2024-01-15T02:17:23;11.83;;;6.50;;
21558;SDS011;10940;48.890;8.240;2024-01-15T02:19:49;11.60;;;7.33;;
21558;SDS011;10940;48.890;8.240;2024-01-15T02:22:15;7.05;;;5.85;;
21558;SDS011;10940;48.890;8.240;2024-01-15T02:24:40;6.57;;;5.83;;
21558;SDS011;10940;48.890;8.240;2024-01-15T02:27:06;7.00;;;6.10;;
21558;SDS011;10940;48.890;8.240;2024-01-15T02:29:32;6.07;;;5.47;;
21558;SDS011;10940;48.890;8.240;2024-01-15T02:31:58;6.50;;;5.90;;
21558;SDS011;10940;48.890;8.240;2024-01-15T02:34:23;10.47;;;5.97;;
21558;SDS011;10940;48.890;8.240;2024-01-15T02:36:49;6.70;;;6.07;;
21558;SDS011;10940;48.890;8.240;2024-01-15T02:39:14;7.73;;;5.73;;
21558;SDS011;10940;48.890;8.240;2024-01-15T02:41:40;9.53;;;6.27;;
21558;SDS011;10940;48.890;8.240;2024-01-15T02:44:06;7.57;;;6.80;;
21558;SDS011;10940;48.890;8.240;2024-01-15T02:46:32;11.20;;;7.47;;
21558;SDS011;10940;48.890;8.240;2024-01-15T02:48:57;12.17;;;7.50;;
21558;SDS011;10940;48.890;8.240;2024-01-15T02:51:23;6.73;;;5.97;;
21558;SDS011;10940;48.890;8.240;2024-01-15T02:53:49;11.93;;;6.60;;
21558;SDS011;10940;48.890;8.240;2024-01-15T02:56:15;9.30;;;6.37;;
21558;SDS011;10940;48.890;8.240;2024-01-15T02:58:41;6.47;;;5.83;;
21558;SDS011;10940;48.890;8.240;2024-01-15T03:01:07;6.67;;;5.87;;
21558;SDS011;10940;48.890;8.240;2024-01-15T03:03:32;6.57;;;5.97;;
21558;SDS011;10940;48.890;8.240;2024-01-15T03:05:58;18.17;;;8.37;;
21558;SDS011;10940;48.890;8.240;2024-01-15T03:08:24;10.80;;;7.43;;
21558;SDS011;10940;48.890;8.240;2024-01-15T03:10:49;17.10;;;7.53;;
21558;SDS011;10940;48.890;8.240;2024-01-15T03:13:15;7.83;;;6.27;;
21558;SDS011;10940;48.890;8.240;2024-01-15T03:15:41;7.43;;;5.93;;
21558;SDS011;10940;48.890;8.240;2024-01-15T03:18:07;7.15;;;6.20;;
21558;SDS011;10940;48.890;8.240;2024-01-15T03:20:33;9.73;;;7.67;;
21558;SDS011;10940;48.890;8.240;2024-01-15T03:22:58;16.57;;;8.73;;
21558;SDS011;10940;48.890;8.240;2024-01-15T03:25:24;11.53;;;9.00;;
21558;SDS011;10940;48.890;8.240;2024-01-15T03:27:50;6.47;;;5.57;;
21558;SDS011;10940;48.890;8.240;2024-01-15T03:30:15;7.90;;;5.50;;
21558;SDS011;10940;48.890;8.240;2024-01-15T03:32:41;13.47;;;6.10;;
21558;SDS011;10940;48.890;8.240;2024-01-15T03:35:07;8.67;;;7.30;;
21558;SDS011;10940;48.890;8.240;2024-01-15T03:37:32;13.47;;;7.33;;
21558;SDS011;10940;48.890;8.240;2024-01-15T03:39:58;6.63;;;6.00;;
21558;SDS011;10940;48.890;8.240;2024-01-15T03:42:23;11.90;;;7.57;;
21558;SDS011;10940;48.890;8.240;2024-01-15T03:44:49;6.93;;;6.23;;
21558;SDS011;10940;48.890;8.240;2024-01-15T03:47:15;9.27;;;6.80;;
21558;SDS011;10940;48.890;8.240;2024-01-15T03:49:41;9.30;;;7.50;;
21558;SDS011;10940;48.890;8.240;2024-01-15T03:52:06;8.93;;;6.73;;
21558;SDS011;10940;48.890;8.240;2024-01-15T03:54:32;10.83;;;6.80;;
21558;SDS011;10940;48.890;8.240;2024-01-15T03:56:57;6.47;;;5.73;;
21558;SDS011;10940;48.890;8.240;2024-01-15T03:59:23;8.63;;;6.73;;
21558;SDS011;10940;48.890;8.240;2024-01-15T04:01:49;9.00;;;7.23;;
21558;SDS011;10940;48.890;8.240;2024-01-15T04:04:17;6.55;;;5.93;;
21558;SDS011;10940;48.890;8.240;2024-01-15T04:06:43;9.33;;;5.97;;
21558;SDS011;10940;48.890;8.240;2024-01-15T04:09:09;9.07;;;5.73;;
21558;SDS011;10940;48.890;8.240;2024-01-15T04:11:34;13.10;;;6.63;;
21558;SDS011;10940;48.890;8.240;2024-01-15T04:14:00;7.40;;;6.47;;
21558;SDS011;10940;48.890;8.240;2024-01-15T04:16:26;9.63;;;6.30;;
21558;SDS011;10940;48.890;8.240;2024-01-15T04:18:51;12.97;;;8.13;;
21558;SDS011;10940;48.890;8.240;2024-01-15T04:21:17;9.77;;;6.93;;
21558;SDS011;10940;48.890;8.240;2024-01-15T04:23:43;31.07;;;7.60;;
21558;SDS011;10940;48.890;8.240;2024-01-15T04:26:09;9.73;;;6.20;;
21558;SDS011;10940;48.890;8.240;2024-01-15T04:28:34;16.57;;;6.60;;
21558;SDS011;10940;48.890;8.240;2024-01-15T04:31:00;5.67;;;4.77;;
21558;SDS011;10940;48.890;8.240;2024-01-15T04:33:25;11.63;;;6.97;;
21558;SDS011;10940;48.890;8.240;2024-01-15T04:35:51;8.93;;;7.03;;
21558;SDS011;10940;48.890;8.240;2024-01-15T04:38:16;5.83;;;5.43;;
21558;SDS011;10940;48.890;8.240;2024-01-15T04:40:42;5.73;;;5.23;;
21558;SDS011;10940;48.890;8.240;2024-01-15T04:43:08;12.90;;;6.40;;
21558;SDS011;10940;48.890;8.240;2024-01-15T04:45:33;8.13;;;6.57;;
21558;SDS011;10940;48.890;8.240;2024-01-15T04:47:59;7.67;;;6.63;;
21558;SDS011;10940;48.890;8.240;2024-01-15T04:50:24;9.93;;;5.70;;
21558;SDS011;10940;48.890;8.240;2024-01-15T04:52:50;6.83;;;5.97;;
21558;SDS011;10940;48.890;8.240;2024-01-15T04:55:16;9.03;;;6.27;;
21558;SDS011;10940;48.890;8.240;2024-01-15T04:57:41;9.37;;;7.43;;
21558;SDS011;10940;48.890;8.240;2024-01-15T05:00:07;5.97;;;4.90;;
21558;SDS011;10940;48.890;8.240;2024-01-15T05:02:33;10.60;;;6.53;;
21558;SDS011;10940;48.890;8.240;2024-01-15T05:04:59;9.00;;;5.83;;
21558;SDS011;10940;48.890;8.240;2024-01-15T05:07:24;7.77;;;5.73;;
21558;SDS011;10940;48.890;8.240;2024-01-15T05:09:50;12.93;;;7.43;;
21558;SDS011;10940;48.890;8.240;2024-01-15T05:12:15;12.53;;;7.60;;
21558;SDS011;10940;48.890;8.240;2024-01-15T05:14:42;5.53;;;5.03;;
21558;SDS011;10940;48.890;8.240;2024-01-15T05:17:07;11.27;;;7.67;;
21558;SDS011;10940;48.890;8.240;2024-01-15T05:19:33;7.80;;;7.00;;
21558;SDS011;10940;48.890;8.240;2024-01-15T05:21:58;9.77;;;8.17;;
21558;SDS011;10940;48.890;8.240;2024-01-15T05:24:24;6.37;;;5.77;;
21558;SDS011;10940;48.890;8.240;2024-01-15T05:26:51;7.70;;;6.93;;
21558;SDS011;10940;48.890;8.240;2024-01-15T05:29:17;6.63;;;5.77;;
21558;SDS011;10940;48.890;8.240;2024-01-15T05:31:43;8.63;;;5.83;;
21558;SDS011;10940;48.890;8.240;2024-01-15T05:34:09;6.47;;;5.73;;
21558;SDS011;10940;48.890;8.240;2024-01-15T05:36:34;9.77;;;6.17;;
21558;SDS011;10940;48.890;8.240;2024-01-15T05:39:00;10.20;;;7.50;;
21558;SDS011;10940;48.890;8.240;2024-01-15T05:41:25;9.53;;;6.37;;
21558;SDS011;10940;48.890;8.240;2024-01-15T05:43:51;6.00;;;5.33;;
21558;SDS011;10940;48.890;8.240;2024-01-15T05:46:17;5.50;;;5.00;;
21558;SDS011;10940;48.890;8.240;2024-01-15T05:48:42;11.63;;;6.70;;
21558;SDS011;10940;48.890;8.240;2024-01-15T05:51:08;6.63;;;5.63;;
21558;SDS011;10940;48.890;8.240;2024-01-15T05:53:35;6.97;;;5.97;;
21558;SDS011;10940;48.890;8.240;2024-01-15T05:56:00;9.47;;;6.10;;
21558;SDS011;10940;48.890;8.240;2024-01-15T05:58:26;7.80;;;6.90;;
21558;SDS011;10940;48.890;8.240;2024-01-15T06:00:52;10.17;;;6.23;;
21558;SDS011;10940;48.890;8.240;2024-01-15T06:03:17;5.43;;;5.03;;
21558;SDS011;10940;48.890;8.240;2024-01-15T06:05:43;5.50;;;5.00;;
21558;SDS011;10940;48.890;8.240;2024-01-15T06:08:09;12.37;;;7.47;;
21558;SDS011;10940;48.890;8.240;2024-01-15T06:10:34;6.53;;;5.57;;
21558;SDS011;10940;48.890;8.240;2024-01-15T06:13:00;8.77;;;7.30;;
21558;SDS011;10940;48.890;8.240;2024-01-15T06:15:26;5.20;;;4.80;;
21558;SDS011;10940;48.890;8.240;2024-01-15T06:17:52;7.77;;;6.70;;
21558;SDS011;10940;48.890;8.240;2024-01-15T06:20:18;8.53;;;5.40;;
21558;SDS011;10940;48.890;8.240;2024-01-15T06:22:44;6.60;;;6.00;;
21558;SDS011;10940;48.890;8.240;2024-01-15T06:25:09;11.07;;;7.57;;
21558;SDS011;10940;48.890;8.240;2024-01-15T06:27:35;5.77;;;5.17;;
21558;SDS011;10940;48.890;8.240;2024-01-15T06:30:01;6.67;;;5.80;;
21558;SDS011;10940;48.890;8.240;2024-01-15T06:32:27;6.53;;;5.93;;
21558;SDS011;10940;48.890;8.240;2024-01-15T06:34:52;6.70;;;5.90;;
21558;SDS011;10940;48.890;8.240;2024-01-15T06:37:18;8.57;;;7.13;;
21558;SDS011;10940;48.890;8.240;2024-01-15T06:39:45;7.97;;;6.73;;
21558;SDS011;10940;48.890;8.240;2024-01-15T06:42:10;7.50;;;5.70;;
21558;SDS011;10940;48.890;8.240;2024-01-15T06:44:36;7.40;;;6.70;;
21558;SDS011;10940;48.890;8.240;2024-01-15T06:47:02;12.37;;;7.57;;
21558;SDS011;10940;48.890;8.240;2024-01-15T06:49:28;11.07;;;5.77;;
21558;SDS011;10940;48.890;8.240;2024-01-15T06:51:54;8.00;;;5.40;;
21558;SDS011;10940;48.890;8.240;2024-01-15T06:54:20;9.93;;;7.20;;
21558;SDS011;10940;48.890;8.240;2024-01-15T06:56:46;12.30;;;6.00;;
21558;SDS011;10940;48.890;8.240;2024-01-15T06:59:12;6.07;;;5.57;;
21558;SDS011;10940;48.890;8.240;2024-01-15T07:01:38;8.93;;;8.03;;
21558;SDS011;10940;48.890;8.240;2024-01-15T07:04:03;5.40;;;4.93;;
21558;SDS011;10940;48.890;8.240;2024-01-15T07:06:29;6.70;;;5.47;;
21558;SDS011;10940;48.890;8.240;2024-01-15T07:08:55;5.93;;;5.40;;
21558;SDS011;10940;48.890;8.240;2024-01-15T07:11:21;6.83;;;6.17;;
21558;SDS011;10940;48.890;8.240;2024-01-15T07:13:47;13.07;;;8.07;;
21558;SDS011;10940;48.890;8.240;2024-01-15T07:16:12;8.50;;;6.07;;
21558;SDS011;10940;48.890;8.240;2024-01-15T07:18:38;6.23;;;5.63;;
21558;SDS011;10940;48.890;8.240;2024-01-15T07:21:04;6.43;;;5.83;;
21558;SDS011;10940;48.890;8.240;2024-01-15T07:23:30;7.60;;;6.83;;
21558;SDS011;10940;48.890;8.240;2024-01-15T07:25:57;13.87;;;7.13;;
21558;SDS011;10940;48.890;8.240;2024-01-15T07:28:22;11.33;;;7.53;;
21558;SDS011;10940;48.890;8.240;2024-01-15T07:30:48;6.40;;;5.33;;
21558;SDS011;10940;48.890;8.240;2024-01-15T07:33:13;9.00;;;6.97;;
21558;SDS011;10940;48.890;8.240;2024-01-15T07:35:39;6.17;;;5.57;;
21558;SDS011;10940;48.890;8.240;2024-01-15T07:38:05;11.43;;;5.77;;
21558;SDS011;10940;48.890;8.240;2024-01-15T07:40:30;13.40;;;6.93;;
21558;SDS011;10940;48.890;8.240;2024-01-15T07:42:56;10.13;;;7.50;;
21558;SDS011;10940;48.890;8.240;2024-01-15T07:45:22;7.30;;;6.40;;
21558;SDS011;10940;48.890;8.240;2024-01-15T07:47:48;6.60;;;5.97;;
21558;SDS011;10940;48.890;8.240;2024-01-15T07:50:14;9.77;;;7.38;;
21558;SDS011;10940;48.890;8.240;2024-01-15T07:52:40;6.97;;;6.17;;
21558;SDS011;10940;48.890;8.240;2024-01-15T07:55:07;7.90;;;7.10;;
21558;SDS011;10940;48.890;8.240;2024-01-15T07:57:33;7.50;;;6.53;;
21558;SDS011;10940;48.890;8.240;2024-01-15T07:59:58;12.70;;;7.87;;
21558;SDS011;10940;48.890;8.240;2024-01-15T08:02:24;9.03;;;7.27;;
21558;SDS011;10940;48.890;8.240;2024-01-15T08:04:49;6.93;;;6.27;;
21558;SDS011;10940;48.890;8.240;2024-01-15T08:07:15;6.97;;;6.30;;
21558;SDS011;10940;48.890;8.240;2024-01-15T08:09:41;8.63;;;6.33;;
21558;SDS011;10940;48.890;8.240;2024-01-15T08:12:06;9.40;;;7.37;;
21558;SDS011;10940;48.890;8.240;2024-01-15T08:14:32;7.63;;;6.50;;
21558;SDS011;10940;48.890;8.240;2024-01-15T08:16:58;9.47;;;7.00;;
21558;SDS011;10940;48.890;8.240;2024-01-15T08:19:24;7.57;;;6.00;;
21558;SDS011;10940;48.890;8.240;2024-01-15T08:21:49;7.70;;;5.70;;
21558;SDS011;10940;48.890;8.240;2024-01-15T08:24:15;5.50;;;5.07;;
21558;SDS011;10940;48.890;8.240;2024-01-15T08:26:41;10.57;;;6.97;;
21558;SDS011;10940;48.890;8.240;2024-01-15T08:29:07;11.37;;;7.00;;
21558;SDS011;10940;48.890;8.240;2024-01-15T08:31:33;9.13;;;7.63;;
21558;SDS011;10940;48.890;8.240;2024-01-15T08:33:58;6.60;;;6.07;;
21558;SDS011;10940;48.890;8.240;2024-01-15T08:36:26;7.87;;;6.57;;
21558;SDS011;10940;48.890;8.240;2024-01-15T08:38:53;11.67;;;7.73;;
21558;SDS011;10940;48.890;8.240;2024-01-15T08:41:18;8.67;;;5.70;;
21558;SDS011;10940;48.890;8.240;2024-01-15T08:43:44;9.17;;;7.07;;
21558;SDS011;10940;48.890;8.240;2024-01-15T08:46:09;6.60;;;6.00;;
21558;SDS011;10940;48.890;8.240;2024-01-15T08:48:35;5.53;;;4.97;;
21558;SDS011;10940;48.890;8.240;2024-01-15T08:51:01;6.93;;;6.37;;
21558;SDS011;10940;48.890;8.240;2024-01-15T08:53:27;4.50;;;4.10;;
21558;SDS011;10940;48.890;8.240;2024-01-15T08:55:53;7.53;;;6.23;;
21558;SDS011;10940;48.890;8.240;2024-01-15T08:58:18;5.60;;;4.77;;
21558;SDS011;10940;48.890;8.240;2024-01-15T09:00:44;6.07;;;5.57;;
21558;SDS011;10940;48.890;8.240;2024-01-15T09:03:09;5.63;;;5.17;;
21558;SDS011;10940;48.890;8.240;2024-01-15T09:05:35;6.60;;;6.03;;
21558;SDS011;10940;48.890;8.240;2024-01-15T09:08:01;9.07;;;6.67;;
21558;SDS011;10940;48.890;8.240;2024-01-15T09:10:27;7.40;;;5.83;;
21558;SDS011;10940;48.890;8.240;2024-01-15T09:12:52;5.03;;;4.60;;
21558;SDS011;10940;48.890;8.240;2024-01-15T09:15:18;5.33;;;4.93;;
21558;SDS011;10940;48.890;8.240;2024-01-15T09:17:44;5.47;;;4.90;;
21558;SDS011;10940;48.890;8.240;2024-01-15T09:20:10;8.93;;;6.03;;
21558;SDS011;10940;48.890;8.240;2024-01-15T09:22:39;6.30;;;5.40;;
21558;SDS011;10940;48.890;8.240;2024-01-15T09:25:09;8.67;;;6.43;;
21558;SDS011;10940;48.890;8.240;2024-01-15T09:27:35;13.97;;;7.03;;
21558;SDS011;10940;48.890;8.240;2024-01-15T09:30:01;6.83;;;6.20;;
21558;SDS011;10940;48.890;8.240;2024-01-15T09:32:28;6.30;;;5.70;;
21558;SDS011;10940;48.890;8.240;2024-01-15T09:34:53;8.77;;;6.80;;
21558;SDS011;10940;48.890;8.240;2024-01-15T09:37:19;5.47;;;4.90;;
21558;SDS011;10940;48.890;8.240;2024-01-15T09:39:44;6.07;;;5.43;;
21558;SDS011;10940;48.890;8.240;2024-01-15T09:42:10;5.10;;;4.70;;
21558;SDS011;10940;48.890;8.240;2024-01-15T09:44:36;5.80;;;5.20;;
21558;SDS011;10940;48.890;8.240;2024-01-15T09:47:03;6.30;;;5.73;;
21558;SDS011;10940;48.890;8.240;2024-01-15T09:49:29;6.53;;;5.37;;
21558;SDS011;10940;48.890;8.240;2024-01-15T09:51:55;5.27;;;4.83;;
21558;SDS011;10940;48.890;8.240;2024-01-15T09:54:23;6.30;;;5.70;;
21558;SDS011;10940;48.890;8.240;2024-01-15T09:56:48;5.77;;;5.07;;
21558;SDS011;10940;48.890;8.240;2024-01-15T09:59:18;5.53;;;5.03;;
21558;SDS011;10940;48.890;8.240;2024-01-15T10:01:44;6.27;;;4.77;;
21558;SDS011;10940;48.890;8.240;2024-01-15T10:04:13;5.87;;;5.30;;
21558;SDS011;10940;48.890;8.240;2024-01-15T10:06:39;7.07;;;6.33;;
21558;SDS011;10940;48.890;8.240;2024-01-15T10:09:08;5.93;;;5.43;;
21558;SDS011;10940;48.890;8.240;2024-01-15T10:11:34;5.40;;;4.90;;
21558;SDS011;10940;48.890;8.240;2024-01-15T10:14:00;6.80;;;5.87;;
21558;SDS011;10940;48.890;8.240;2024-01-15T10:16:26;7.47;;;6.30;;
21558;SDS011;10940;48.890;8.240;2024-01-15T10:18:51;8.33;;;5.33;;
21558;SDS011;10940;48.890;8.240;2024-01-15T10:21:17;8.43;;;5.47;;
21558;SDS011;10940;48.890;8.240;2024-01-15T10:23:43;5.40;;;4.90;;
21558;SDS011;10940;48.890;8.240;2024-01-15T10:26:09;5.60;;;5.10;;
21558;SDS011;10940;48.890;8.240;2024-01-15T10:28:36;3.67;;;3.37;;
21558;SDS011;10940;48.890;8.240;2024-01-15T10:31:02;6.20;;;5.23;;
21558;SDS011;10940;48.890;8.240;2024-01-15T10:33:28;4.40;;;4.10;;
21558;SDS011;10940;48.890;8.240;2024-01-15T10:35:57;4.10;;;3.77;;
21558;SDS011;10940;48.890;8.240;2024-01-15T10:38:25;4.93;;;3.50;;
21558;SDS011;10940;48.890;8.240;2024-01-15T10:40:51;5.90;;;5.30;;
21558;SDS011;10940;48.890;8.240;2024-01-15T10:43:18;6.53;;;5.40;;
21558;SDS011;10940;48.890;8.240;2024-01-15T10:45:47;4.80;;;4.20;;
21558;SDS011;10940;48.890;8.240;2024-01-15T10:48:15;7.50;;;6.23;;
21558;SDS011;10940;48.890;8.240;2024-01-15T10:50:42;6.27;;;5.00;;
21558;SDS011;10940;48.890;8.240;2024-01-15T10:53:09;11.57;;;6.13;;
21558;SDS011;10940;48.890;8.240;2024-01-15T10:55:37;5.87;;;5.13;;
21558;SDS011;10940;48.890;8.240;2024-01-15T10:58:04;7.83;;;5.77;;
21558;SDS011;10940;48.890;8.240;2024-01-15T11:00:32;7.03;;;4.67;;
21558;SDS011;10940;48.890;8.240;2024-01-15T11:03:00;6.73;;;5.67;;
21558;SDS011;10940;48.890;8.240;2024-01-15T11:05:27;6.90;;;5.77;;
21558;SDS011;10940;48.890;8.240;2024-01-15T11:07:56;6.73;;;5.97;;
21558;SDS011;10940;48.890;8.240;2024-01-15T11:16:05;3.70;;;3.43;;
21558;SDS011;10940;48.890;8.240;2024-01-15T11:18:34;4.10;;;3.80;;
21558;SDS011;10940;48.890;8.240;2024-01-15T11:23:42;5.87;;;5.27;;
21558;SDS011;10940;48.890;8.240;2024-01-15T11:28:55;7.07;;;5.30;;
21558;SDS011;10940;48.890;8.240;2024-01-15T11:31:28;5.13;;;4.03;;
21558;SDS011;10940;48.890;8.240;2024-01-15T11:33:53;5.43;;;4.97;;
21558;SDS011;10940;48.890;8.240;2024-01-15T11:36:20;7.33;;;4.50;;
21558;SDS011;10940;48.890;8.240;2024-01-15T11:41:53;13.10;;;5.70;;
21558;SDS011;10940;48.890;8.240;2024-01-15T11:44:20;5.03;;;4.40;;
21558;SDS011;10940;48.890;8.240;2024-01-15T11:46:51;3.73;;;3.43;;
21558;SDS011;10940;48.890;8.240;2024-01-15T11:52:16;3.83;;;3.53;;
21558;SDS011;10940;48.890;8.240;2024-01-15T12:00:13;5.13;;;3.77;;
21558;SDS011;10940;48.890;8.240;2024-01-15T12:02:39;3.53;;;3.23;;
21558;SDS011;10940;48.890;8.240;2024-01-15T12:05:09;3.67;;;3.30;;
21558;SDS011;10940;48.890;8.240;2024-01-15T12:07:39;4.63;;;3.57;;
21558;SDS011;10940;48.890;8.240;2024-01-15T12:10:12;4.30;;;3.90;;
21558;SDS011;10940;48.890;8.240;2024-01-15T12:15:24;2.63;;;2.40;;
21558;SDS011;10940;48.890;8.240;2024-01-15T12:17:50;3.57;;;3.30;;
21558;SDS011;10940;48.890;8.240;2024-01-15T12:20:17;3.77;;;3.40;;
21558;SDS011;10940;48.890;8.240;2024-01-15T12:22:43;2.73;;;2.53;;
21558;SDS011;10940;48.890;8.240;2024-01-15T12:25:09;5.83;;;3.70;;
21558;SDS011;10940;48.890;8.240;2024-01-15T12:27:35;3.27;;;2.97;;
21558;SDS011;10940;48.890;8.240;2024-01-15T12:30:00;2.17;;;1.97;;
21558;SDS011;10940;48.890;8.240;2024-01-15T12:32:26;3.40;;;3.13;;
21558;SDS011;10940;48.890;8.240;2024-01-15T12:34:52;3.17;;;2.97;;
21558;SDS011;10940;48.890;8.240;2024-01-15T12:37:18;3.90;;;3.57;;
21558;SDS011;10940;48.890;8.240;2024-01-15T12:39:47;2.67;;;2.47;;
21558;SDS011;10940;48.890;8.240;2024-01-15T12:42:16;3.10;;;2.90;;
21558;SDS011;10940;48.890;8.240;2024-01-15T12:44:42;3.53;;;3.27;;
21558;SDS011;10940;48.890;8.240;2024-01-15T12:47:09;4.67;;;4.03;;
21558;SDS011;10940;48.890;8.240;2024-01-15T12:49:38;2.73;;;2.60;;
21558;SDS011;10940;48.890;8.240;2024-01-15T12:52:08;3.97;;;3.67;;
21558;SDS011;10940;48.890;8.240;2024-01-15T12:54:34;3.27;;;3.00;;
21558;SDS011;10940;48.890;8.240;2024-01-15T12:57:00;3.93;;;3.63;;
21558;SDS011;10940;48.890;8.240;2024-01-15T12:59:26;3.57;;;3.27;;
21558;SDS011;10940;48.890;8.240;2024-01-15T13:01:51;6.47;;;4.27;;
21558;SDS011;10940;48.890;8.240;2024-01-15T13:04:23;4.23;;;3.83;;
21558;SDS011;10940;48.890;8.240;2024-01-15T13:06:50;3.80;;;3.43;;
21558;SDS011;10940;48.890;8.240;2024-01-15T13:09:16;5.47;;;4.90;;
21558;SDS011;10940;48.890;8.240;2024-01-15T13:11:43;3.87;;;3.57;;
21558;SDS011;10940;48.890;8.240;2024-01-15T13:14:09;3.53;;;3.30;;
21558;SDS011;10940;48.890;8.240;2024-01-15T13:16:35;3.73;;;3.37;;
21558;SDS011;10940;48.890;8.240;2024-01-15T13:19:01;4.43;;;4.03;;
21558;SDS011;10940;48.890;8.240;2024-01-15T13:21:28;4.70;;;3.43;;
21558;SDS011;10940;48.890;8.240;2024-01-15T13:23:54;2.73;;;2.53;;
21558;SDS011;10940;48.890;8.240;2024-01-15T13:26:20;3.20;;;2.93;;
21558;SDS011;10940;48.890;8.240;2024-01-15T13:28:46;3.87;;;3.13;;
21558;SDS011;10940;48.890;8.240;2024-01-15T13:31:12;3.67;;;3.40;;
21558;SDS011;10940;48.890;8.240;2024-01-15T13:33:38;3.70;;;3.47;;
21558;SDS011;10940;48.890;8.240;2024-01-15T13:36:04;3.27;;;2.97;;
21558;SDS011;10940;48.890;8.240;2024-01-15T13:38:33;32.07;;;4.37;;
21558;SDS011;10940;48.890;8.240;2024-01-15T13:41:02;3.83;;;3.53;;
21558;SDS011;10940;48.890;8.240;2024-01-15T13:43:27;3.00;;;2.80;;
21558;SDS011;10940;48.890;8.240;2024-01-15T13:45:53;4.43;;;4.03;;
21558;SDS011;10940;48.890;8.240;2024-01-15T13:48:19;4.10;;;3.80;;
21558;SDS011;10940;48.890;8.240;2024-01-15T13:50:45;4.07;;;3.73;;
21558;SDS011;10940;48.890;8.240;2024-01-15T13:53:11;3.87;;;3.57;;
21558;SDS011;10940;48.890;8.240;2024-01-15T13:55:36;4.03;;;3.57;;
21558;SDS011;10940;48.890;8.240;2024-01-15T13:58:02;3.07;;;2.87;;
21558;SDS011;10940;48.890;8.240;2024-01-15T14:00:30;3.40;;;3.20;;
21558;SDS011;10940;48.890;8.240;2024-01-15T14:02:56;12.90;;;3.60;;
21558;SDS011;10940;48.890;8.240;2024-01-15T14:05:22;3.27;;;2.97;;
21558;SDS011;10940;48.890;8.240;2024-01-15T14:07:48;3.27;;;3.07;;
21558;SDS011;10940;48.890;8.240;2024-01-15T14:10:14;3.40;;;3.20;;
21558;SDS011;10940;48.890;8.240;2024-01-15T14:12:39;4.20;;;3.80;;
21558;SDS011;10940;48.890;8.240;2024-01-15T14:15:05;3.63;;;3.27;;
21558;SDS011;10940;48.890;8.240;2024-01-15T14:17:32;3.70;;;3.40;;
21558;SDS011;10940;48.890;8.240;2024-01-15T14:19:57;3.23;;;3.03;;
21558;SDS011;10940;48.890;8.240;2024-01-15T14:22:23;3.87;;;3.53;;
21558;SDS011;10940;48.890;8.240;2024-01-15T14:24:49;3.00;;;2.80;;
21558;SDS011;10940;48.890;8.240;2024-01-15T14:27:15;4.00;;;3.70;;
21558;SDS011;10940;48.890;8.240;2024-01-15T14:29:41;2.87;;;2.67;;
21558;SDS011;10940;48.890;8.240;2024-01-15T14:32:07;2.73;;;2.53;;
21558;SDS011;10940;48.890;8.240;2024-01-15T14:34:32;3.03;;;2.83;;
21558;SDS011;10940;48.890;8.240;2024-01-15T14:36:58;3.07;;;2.77;;
21558;SDS011;10940;48.890;8.240;2024-01-15T14:39:24;3.43;;;3.23;;
21558;SDS011;10940;48.890;8.240;2024-01-15T14:41:50;5.73;;;4.20;;
21558;SDS011;10940;48.890;8.240;2024-01-15T14:44:16;3.67;;;3.37;;
21558;SDS011;10940;48.890;8.240;2024-01-15T14:46:42;3.23;;;2.93;;
21558;SDS011;10940;48.890;8.240;2024-01-15T14:49:07;3.73;;;3.10;;
21558;SDS011;10940;48.890;8.240;2024-01-15T14:51:33;3.90;;;3.60;;
21558;SDS011;10940;48.890;8.240;2024-01-15T14:53:59;3.23;;;2.97;;
21558;SDS011;10940;48.890;8.240;2024-01-15T14:56:24;3.17;;;2.97;;
21558;SDS011;10940;48.890;8.240;2024-01-15T14:58:50;5.30;;;4.80;;
21558;SDS011;10940;48.890;8.240;2024-01-15T15:01:16;5.33;;;4.83;;
21558;SDS011;10940;48.890;8.240;2024-01-15T15:03:41;3.03;;;2.83;;